sensor_id;sensor_type;location;lat;lon;timestamp;temperature;humidity
8420;DHT22;4247;48.550;8.822;2023-04-01T00:01:27;8.20;99.90
8420;DHT22;4247;48.550;8.822;2023-04-01T00:03:54;8.20;99.90
8420;DHT22;4247;48.550;8.822;2023-04-01T00:06:22;8.20;99.90
8420;DHT22;4247;48.550;8.822;2023-04-01T00:08:48;8.20;99.90
8420;DHT22;4247;48.550;8.822;2023-04-01T00:11:17;8.20;99.90
8420;DHT22;4247;48.550;8.822;2023-04-01T00:13:44;8.10;99.90
8420;DHT22;4247;48.550;8.822;2023-04-01T00:16:11;8.10;99.90
8420;DHT22;4247;48.550;8.822;2023-04-01T00:18:38;8.10;99.90
8420;DHT22;4247;48.550;8.822;2023-04-01T00:21:05;8.10;99.90
8420;DHT22;4247;48.550;8.822;2023-04-01T00:23:33;8.20;99.90
8420;DHT22;4247;48.550;8.822;2023-04-01T00:26:00;8.10;99.90
8420;DHT22;4247;48.550;8.822;2023-04-01T00:28:29;8.10;99.90
8420;DHT22;4247;48.550;8.822;2023-04-01T00:30:56;8.10;99.90
8420;DHT22;4247;48.550;8.822;2023-04-01T00:33:23;8.10;99.90
8420;DHT22;4247;48.550;8.822;2023-04-01T00:35:50;8.10;99.90
8420;DHT22;4247;48.550;8.822;2023-04-01T00:38:16;8.10;99.90
8420;DHT22;4247;48.550;8.822;2023-04-01T00:40:46;8.10;99.90
8420;DHT22;4247;48.550;8.822;2023-04-01T00:43:14;8.10;99.90
8420;DHT22;4247;48.550;8.822;2023-04-01T00:45:46;8.00;99.90
8420;DHT22;4247;48.550;8.822;2023-04-01T00:48:15;8.00;99.90
8420;DHT22;4247;48.550;8.822;2023-04-01T00:50:46;8.00;99.90
8420;DHT22;4247;48.550;8.822;2023-04-01T00:53:16;8.00;99.90
8420;DHT22;4247;48.550;8.822;2023-04-01T00:55:49;8.00;99.90
8420;DHT22;4247;48.550;8.822;2023-04-01T00:58:21;8.00;99.90
8420;DHT22;4247;48.550;8.822;2023-04-01T01:00:50;8.00;99.90
8420;DHT22;4247;48.550;8.822;2023-04-01T01:03:17;8.00;99.90
8420;DHT22;4247;48.550;8.822;2023-04-01T01:06:05;7.90;99.90
8420;DHT22;4247;48.550;8.822;2023-04-01T01:08:42;7.90;99.90
8420;DHT22;4247;48.550;8.822;2023-04-01T01:11:14;7.90;99.90
8420;DHT22;4247;48.550;8.822;2023-04-01T01:13:50;7.90;99.90
8420;DHT22;4247;48.550;8.822;2023-04-01T01:16:24;7.90;99.90
8420;DHT22;4247;48.550;8.822;2023-04-01T01:18:55;7.90;99.90
8420;DHT22;4247;48.550;8.822;2023-04-01T01:21:46;7.90;99.90
8420;DHT22;4247;48.550;8.822;2023-04-01T01:24:37;7.80;99.90
8420;DHT22;4247;48.550;8.822;2023-04-01T01:27:09;7.90;99.90
8420;DHT22;4247;48.550;8.822;2023-04-01T01:33:06;7.90;99.90
8420;DHT22;4247;48.550;8.822;2023-04-01T01:35:38;7.90;99.90
8420;DHT22;4247;48.550;8.822;2023-04-01T01:38:09;7.80;99.90
8420;DHT22;4247;48.550;8.822;2023-04-01T01:40:36;7.80;99.90
8420;DHT22;4247;48.550;8.822;2023-04-01T01:43:09;7.70;99.90
8420;DHT22;4247;48.550;8.822;2023-04-01T01:45:53;7.70;99.90
8420;DHT22;4247;48.550;8.822;2023-04-01T01:48:22;7.70;99.90
8420;DHT22;4247;48.550;8.822;2023-04-01T01:50:51;7.70;99.90
8420;DHT22;4247;48.550;8.822;2023-04-01T01:53:18;7.70;99.90
8420;DHT22;4247;48.550;8.822;2023-04-01T01:55:46;7.60;99.90
8420;DHT22;4247;48.550;8.822;2023-04-01T01:58:18;7.60;99.90
8420;DHT22;4247;48.550;8.822;2023-04-01T02:00:50;7.70;99.90
8420;DHT22;4247;48.550;8.822;2023-04-01T02:03:17;7.60;99.90
8420;DHT22;4247;48.550;8.822;2023-04-01T02:05:46;7.70;99.90
8420;DHT22;4247;48.550;8.822;2023-04-01T02:08:16;7.70;99.90
8420;DHT22;4247;48.550;8.822;2023-04-01T02:10:47;7.60;99.90
8420;DHT22;4247;48.550;8.822;2023-04-01T02:13:18;7.60;99.90
8420;DHT22;4247;48.550;8.822;2023-04-01T02:15:50;7.60;99.90
8420;DHT22;4247;48.550;8.822;2023-04-01T02:18:21;7.60;99.90
8420;DHT22;4247;48.550;8.822;2023-04-01T02:20:49;7.60;99.90
8420;DHT22;4247;48.550;8.822;2023-04-01T02:23:18;7.60;99.90
8420;DHT22;4247;48.550;8.822;2023-04-01T02:25:45;7.60;99.90
8420;DHT22;4247;48.550;8.822;2023-04-01T02:28:13;7.60;99.90
8420;DHT22;4247;48.550;8.822;2023-04-01T02:30:45;7.60;99.90
8420;DHT22;4247;48.550;8.822;2023-04-01T02:33:13;7.60;99.90
8420;DHT22;4247;48.550;8.822;2023-04-01T02:35:40;7.60;99.90
8420;DHT22;4247;48.550;8.822;2023-04-01T02:38:07;7.60;99.90
8420;DHT22;4247;48.550;8.822;2023-04-01T02:40:49;7.50;99.90
8420;DHT22;4247;48.550;8.822;2023-04-01T02:43:16;7.50;99.90
8420;DHT22;4247;48.550;8.822;2023-04-01T02:45:44;7.50;99.90
8420;DHT22;4247;48.550;8.822;2023-04-01T02:48:11;7.40;99.90
8420;DHT22;4247;48.550;8.822;2023-04-01T02:50:39;7.40;99.90
8420;DHT22;4247;48.550;8.822;2023-04-01T02:53:06;7.40;99.90
8420;DHT22;4247;48.550;8.822;2023-04-01T02:55:33;7.40;99.90
8420;DHT22;4247;48.550;8.822;2023-04-01T02:58:02;7.30;99.90
8420;DHT22;4247;48.550;8.822;2023-04-01T03:00:29;7.30;99.90
8420;DHT22;4247;48.550;8.822;2023-04-01T03:02:55;7.30;99.90
8420;DHT22;4247;48.550;8.822;2023-04-01T03:05:23;7.20;99.90
8420;DHT22;4247;48.550;8.822;2023-04-01T03:07:50;7.20;99.90
8420;DHT22;4247;48.550;8.822;2023-04-01T03:10:17;7.10;99.90
8420;DHT22;4247;48.550;8.822;2023-04-01T03:12:44;7.10;99.90
8420;DHT22;4247;48.550;8.822;2023-04-01T03:15:13;7.10;99.90
8420;DHT22;4247;48.550;8.822;2023-04-01T03:17:40;7.10;99.90
8420;DHT22;4247;48.550;8.822;2023-04-01T03:20:08;7.10;99.90
8420;DHT22;4247;48.550;8.822;2023-04-01T03:22:36;7.10;99.90
8420;DHT22;4247;48.550;8.822;2023-04-01T03:25:05;7.10;99.90
8420;DHT22;4247;48.550;8.822;2023-04-01T03:27:33;7.10;99.90
8420;DHT22;4247;48.550;8.822;2023-04-01T03:30:00;7.10;99.90
8420;DHT22;4247;48.550;8.822;2023-04-01T03:32:28;7.10;99.90
8420;DHT22;4247;48.550;8.822;2023-04-01T03:34:55;7.10;99.90
8420;DHT22;4247;48.550;8.822;2023-04-01T03:37:22;7.10;99.90
8420;DHT22;4247;48.550;8.822;2023-04-01T03:39:49;7.10;99.90
8420;DHT22;4247;48.550;8.822;2023-04-01T03:42:15;7.00;99.90
8420;DHT22;4247;48.550;8.822;2023-04-01T03:44:42;7.00;99.90
8420;DHT22;4247;48.550;8.822;2023-04-01T03:47:09;7.00;99.90
8420;DHT22;4247;48.550;8.822;2023-04-01T03:49:37;7.10;99.90
8420;DHT22;4247;48.550;8.822;2023-04-01T03:52:04;7.00;99.90
8420;DHT22;4247;48.550;8.822;2023-04-01T03:54:31;7.10;99.90
8420;DHT22;4247;48.550;8.822;2023-04-01T03:56:58;7.10;99.90
8420;DHT22;4247;48.550;8.822;2023-04-01T03:59:25;7.10;99.90
8420;DHT22;4247;48.550;8.822;2023-04-01T04:01:51;7.10;99.90
8420;DHT22;4247;48.550;8.822;2023-04-01T04:04:18;7.10;99.90
8420;DHT22;4247;48.550;8.822;2023-04-01T04:06:46;7.10;99.90
8420;DHT22;4247;48.550;8.822;2023-04-01T04:09:13;7.10;99.90
8420;DHT22;4247;48.550;8.822;2023-04-01T04:11:40;7.10;99.90
8420;DHT22;4247;48.550;8.822;2023-04-01T04:14:07;7.00;99.90
8420;DHT22;4247;48.550;8.822;2023-04-01T04:16:34;7.00;99.90
8420;DHT22;4247;48.550;8.822;2023-04-01T04:19:02;6.90;99.90
8420;DHT22;4247;48.550;8.822;2023-04-01T04:21:30;6.90;99.90
8420;DHT22;4247;48.550;8.822;2023-04-01T04:23:58;6.90;99.90
8420;DHT22;4247;48.550;8.822;2023-04-01T04:26:25;6.90;99.90
8420;DHT22;4247;48.550;8.822;2023-04-01T04:28:53;6.90;99.90
8420;DHT22;4247;48.550;8.822;2023-04-01T04:31:21;7.00;99.90
8420;DHT22;4247;48.550;8.822;2023-04-01T04:33:48;7.00;99.90
8420;DHT22;4247;48.550;8.822;2023-04-01T04:36:16;7.00;99.90
8420;DHT22;4247;48.550;8.822;2023-04-01T04:38:43;7.10;99.90
8420;DHT22;4247;48.550;8.822;2023-04-01T04:41:12;7.10;99.90
8420;DHT22;4247;48.550;8.822;2023-04-01T04:43:40;7.10;99.90
8420;DHT22;4247;48.550;8.822;2023-04-01T04:46:07;7.20;99.90
8420;DHT22;4247;48.550;8.822;2023-04-01T04:48:34;7.20;99.90
8420;DHT22;4247;48.550;8.822;2023-04-01T04:51:01;7.20;99.90
8420;DHT22;4247;48.550;8.822;2023-04-01T04:53:27;7.20;99.90
8420;DHT22;4247;48.550;8.822;2023-04-01T04:55:54;7.30;99.90
8420;DHT22;4247;48.550;8.822;2023-04-01T04:58:23;7.30;99.90
8420;DHT22;4247;48.550;8.822;2023-04-01T05:00:50;7.30;99.90
8420;DHT22;4247;48.550;8.822;2023-04-01T05:03:16;7.30;99.90
8420;DHT22;4247;48.550;8.822;2023-04-01T05:05:48;7.40;99.90
8420;DHT22;4247;48.550;8.822;2023-04-01T05:08:15;7.30;99.90
8420;DHT22;4247;48.550;8.822;2023-04-01T05:10:42;7.40;99.90
8420;DHT22;4247;48.550;8.822;2023-04-01T05:13:10;7.40;99.90
8420;DHT22;4247;48.550;8.822;2023-04-01T05:15:38;7.40;99.90
8420;DHT22;4247;48.550;8.822;2023-04-01T05:18:05;7.40;99.90
8420;DHT22;4247;48.550;8.822;2023-04-01T05:20:32;7.40;99.90
8420;DHT22;4247;48.550;8.822;2023-04-01T05:22:59;7.50;99.90
8420;DHT22;4247;48.550;8.822;2023-04-01T05:25:26;7.40;99.90
8420;DHT22;4247;48.550;8.822;2023-04-01T05:27:53;7.50;99.90
8420;DHT22;4247;48.550;8.822;2023-04-01T05:30:20;7.50;99.90
8420;DHT22;4247;48.550;8.822;2023-04-01T05:32:49;7.50;99.90
8420;DHT22;4247;48.550;8.822;2023-04-01T05:35:15;7.50;99.90
8420;DHT22;4247;48.550;8.822;2023-04-01T05:37:42;7.50;99.90
8420;DHT22;4247;48.550;8.822;2023-04-01T05:40:10;7.50;99.90
8420;DHT22;4247;48.550;8.822;2023-04-01T05:42:37;7.50;99.90
8420;DHT22;4247;48.550;8.822;2023-04-01T05:45:04;7.60;99.90
8420;DHT22;4247;48.550;8.822;2023-04-01T05:47:31;7.50;99.90
8420;DHT22;4247;48.550;8.822;2023-04-01T05:49:59;7.50;99.90
8420;DHT22;4247;48.550;8.822;2023-04-01T05:52:26;7.50;99.90
8420;DHT22;4247;48.550;8.822;2023-04-01T05:54:53;7.50;99.90
8420;DHT22;4247;48.550;8.822;2023-04-01T05:57:20;7.60;99.90
8420;DHT22;4247;48.550;8.822;2023-04-01T05:59:46;7.60;99.90
8420;DHT22;4247;48.550;8.822;2023-04-01T06:02:16;7.60;99.90
8420;DHT22;4247;48.550;8.822;2023-04-01T06:04:43;7.60;99.90
8420;DHT22;4247;48.550;8.822;2023-04-01T06:07:12;7.60;99.90
8420;DHT22;4247;48.550;8.822;2023-04-01T06:09:40;7.60;99.90
8420;DHT22;4247;48.550;8.822;2023-04-01T06:12:40;7.60;99.90
8420;DHT22;4247;48.550;8.822;2023-04-01T06:15:17;7.70;99.90
8420;DHT22;4247;48.550;8.822;2023-04-01T06:20:50;7.70;99.90
8420;DHT22;4247;48.550;8.822;2023-04-01T06:23:34;7.70;99.90
8420;DHT22;4247;48.550;8.822;2023-04-01T06:26:15;7.80;99.90
8420;DHT22;4247;48.550;8.822;2023-04-01T06:28:56;7.80;99.90
8420;DHT22;4247;48.550;8.822;2023-04-01T06:31:34;7.80;99.90
8420;DHT22;4247;48.550;8.822;2023-04-01T06:34:23;7.80;99.90
8420;DHT22;4247;48.550;8.822;2023-04-01T06:37:07;7.90;99.90
8420;DHT22;4247;48.550;8.822;2023-04-01T06:39:59;7.90;99.90
8420;DHT22;4247;48.550;8.822;2023-04-01T06:42:40;7.90;99.90
8420;DHT22;4247;48.550;8.822;2023-04-01T06:45:17;8.00;99.90
8420;DHT22;4247;48.550;8.822;2023-04-01T06:47:57;8.00;99.90
8420;DHT22;4247;48.550;8.822;2023-04-01T06:50:30;8.10;99.90
8420;DHT22;4247;48.550;8.822;2023-04-01T06:53:03;8.10;99.90
8420;DHT22;4247;48.550;8.822;2023-04-01T06:55:38;8.10;99.90
8420;DHT22;4247;48.550;8.822;2023-04-01T06:58:12;8.20;99.90
8420;DHT22;4247;48.550;8.822;2023-04-01T07:00:44;8.20;99.90
8420;DHT22;4247;48.550;8.822;2023-04-01T07:03:18;8.20;99.90
8420;DHT22;4247;48.550;8.822;2023-04-01T07:05:46;8.20;99.90
8420;DHT22;4247;48.550;8.822;2023-04-01T07:08:17;8.30;99.90
8420;DHT22;4247;48.550;8.822;2023-04-01T07:10:50;8.40;99.90
8420;DHT22;4247;48.550;8.822;2023-04-01T07:13:21;8.30;99.90
8420;DHT22;4247;48.550;8.822;2023-04-01T07:15:56;8.30;99.90
8420;DHT22;4247;48.550;8.822;2023-04-01T07:18:30;8.40;99.90
8420;DHT22;4247;48.550;8.822;2023-04-01T07:20:59;8.40;99.90
8420;DHT22;4247;48.550;8.822;2023-04-01T07:23:31;8.50;99.90
8420;DHT22;4247;48.550;8.822;2023-04-01T07:26:04;8.50;99.90
8420;DHT22;4247;48.550;8.822;2023-04-01T07:28:33;8.60;99.90
8420;DHT22;4247;48.550;8.822;2023-04-01T07:31:10;8.60;99.90
8420;DHT22;4247;48.550;8.822;2023-04-01T07:33:44;8.60;99.90
8420;DHT22;4247;48.550;8.822;2023-04-01T07:36:16;8.70;99.90
8420;DHT22;4247;48.550;8.822;2023-04-01T07:38:54;8.70;99.90
8420;DHT22;4247;48.550;8.822;2023-04-01T07:41:32;8.80;99.90
8420;DHT22;4247;48.550;8.822;2023-04-01T07:44:08;8.80;99.90
8420;DHT22;4247;48.550;8.822;2023-04-01T07:46:50;8.90;99.90
8420;DHT22;4247;48.550;8.822;2023-04-01T07:49:25;8.90;99.90
8420;DHT22;4247;48.550;8.822;2023-04-01T07:51:57;8.90;99.90
8420;DHT22;4247;48.550;8.822;2023-04-01T07:54:29;8.80;99.90
8420;DHT22;4247;48.550;8.822;2023-04-01T07:57:03;8.80;99.90
8420;DHT22;4247;48.550;8.822;2023-04-01T07:59:37;8.80;99.90
8420;DHT22;4247;48.550;8.822;2023-04-01T08:02:13;8.90;99.90
8420;DHT22;4247;48.550;8.822;2023-04-01T08:04:50;8.80;99.90
8420;DHT22;4247;48.550;8.822;2023-04-01T08:07:21;8.80;99.90
8420;DHT22;4247;48.550;8.822;2023-04-01T08:09:54;8.80;99.90
8420;DHT22;4247;48.550;8.822;2023-04-01T08:12:35;8.80;99.90
8420;DHT22;4247;48.550;8.822;2023-04-01T08:15:12;8.80;99.90
8420;DHT22;4247;48.550;8.822;2023-04-01T08:17:49;8.80;99.90
8420;DHT22;4247;48.550;8.822;2023-04-01T08:20:28;8.80;99.90
8420;DHT22;4247;48.550;8.822;2023-04-01T08:23:01;8.80;99.90
8420;DHT22;4247;48.550;8.822;2023-04-01T08:25:30;8.80;99.90
8420;DHT22;4247;48.550;8.822;2023-04-01T08:28:04;8.80;99.90
8420;DHT22;4247;48.550;8.822;2023-04-01T08:30:40;8.80;99.90
8420;DHT22;4247;48.550;8.822;2023-04-01T08:33:12;8.80;99.90
8420;DHT22;4247;48.550;8.822;2023-04-01T08:35:46;8.70;99.90
8420;DHT22;4247;48.550;8.822;2023-04-01T08:38:18;8.70;99.90
8420;DHT22;4247;48.550;8.822;2023-04-01T08:40:57;8.80;99.90
8420;DHT22;4247;48.550;8.822;2023-04-01T08:49:28;8.80;99.90
8420;DHT22;4247;48.550;8.822;2023-04-01T08:52:22;8.90;99.90
8420;DHT22;4247;48.550;8.822;2023-04-01T08:57:56;8.90;99.90
8420;DHT22;4247;48.550;8.822;2023-04-01T09:00:30;8.90;99.90
8420;DHT22;4247;48.550;8.822;2023-04-01T09:06:20;9.10;99.90
8420;DHT22;4247;48.550;8.822;2023-04-01T09:12:13;9.30;99.90
8420;DHT22;4247;48.550;8.822;2023-04-01T09:14:59;9.40;99.90
8420;DHT22;4247;48.550;8.822;2023-04-01T09:20:44;9.40;99.90
8420;DHT22;4247;48.550;8.822;2023-04-01T09:23:46;9.50;99.90
8420;DHT22;4247;48.550;8.822;2023-04-01T09:26:27;9.40;99.90
8420;DHT22;4247;48.550;8.822;2023-04-01T09:29:05;9.50;99.90
8420;DHT22;4247;48.550;8.822;2023-04-01T09:31:48;9.50;99.90
8420;DHT22;4247;48.550;8.822;2023-04-01T09:34:35;9.70;99.90
8420;DHT22;4247;48.550;8.822;2023-04-01T09:37:19;9.80;99.90
8420;DHT22;4247;48.550;8.822;2023-04-01T09:39:57;10.00;99.90
8420;DHT22;4247;48.550;8.822;2023-04-01T09:42:42;10.10;99.90
8420;DHT22;4247;48.550;8.822;2023-04-01T09:45:20;10.20;99.90
8420;DHT22;4247;48.550;8.822;2023-04-01T09:47:59;10.30;99.90
8420;DHT22;4247;48.550;8.822;2023-04-01T09:50:35;10.10;99.90
8420;DHT22;4247;48.550;8.822;2023-04-01T09:53:17;10.10;99.90
8420;DHT22;4247;48.550;8.822;2023-04-01T09:59:15;9.80;99.90
8420;DHT22;4247;48.550;8.822;2023-04-01T10:02:08;9.80;99.90
8420;DHT22;4247;48.550;8.822;2023-04-01T10:05:10;9.80;99.90
8420;DHT22;4247;48.550;8.822;2023-04-01T10:08:02;9.90;99.90
8420;DHT22;4247;48.550;8.822;2023-04-01T10:17:00;9.80;99.90
8420;DHT22;4247;48.550;8.822;2023-04-01T10:20:07;9.90;99.90
8420;DHT22;4247;48.550;8.822;2023-04-01T10:22:48;10.00;99.90
8420;DHT22;4247;48.550;8.822;2023-04-01T10:25:29;10.10;99.90
8420;DHT22;4247;48.550;8.822;2023-04-01T10:31:43;10.20;99.90
8420;DHT22;4247;48.550;8.822;2023-04-01T10:37:23;10.30;99.90
8420;DHT22;4247;48.550;8.822;2023-04-01T10:40:33;10.30;99.90
8420;DHT22;4247;48.550;8.822;2023-04-01T10:43:44;10.50;99.90
8420;DHT22;4247;48.550;8.822;2023-04-01T10:49:41;10.60;99.90
8420;DHT22;4247;48.550;8.822;2023-04-01T10:55:27;10.50;99.90
8420;DHT22;4247;48.550;8.822;2023-04-01T10:58:39;10.80;99.90
8420;DHT22;4247;48.550;8.822;2023-04-01T11:01:40;10.90;99.90
8420;DHT22;4247;48.550;8.822;2023-04-01T11:07:45;10.70;99.90
8420;DHT22;4247;48.550;8.822;2023-04-01T11:13:54;10.90;99.90
8420;DHT22;4247;48.550;8.822;2023-04-01T11:19:49;11.00;99.90
8420;DHT22;4247;48.550;8.822;2023-04-01T11:22:29;11.10;99.90
8420;DHT22;4247;48.550;8.822;2023-04-01T11:25:17;11.10;99.90
8420;DHT22;4247;48.550;8.822;2023-04-01T11:28:04;11.10;99.90
8420;DHT22;4247;48.550;8.822;2023-04-01T11:30:46;11.30;99.90
8420;DHT22;4247;48.550;8.822;2023-04-01T11:33:19;11.40;99.90
8420;DHT22;4247;48.550;8.822;2023-04-01T11:35:55;11.40;99.90
8420;DHT22;4247;48.550;8.822;2023-04-01T11:38:40;11.30;99.90
8420;DHT22;4247;48.550;8.822;2023-04-01T11:41:22;11.30;99.90
8420;DHT22;4247;48.550;8.822;2023-04-01T11:44:09;11.30;99.90
8420;DHT22;4247;48.550;8.822;2023-04-01T11:46:47;11.30;99.90
8420;DHT22;4247;48.550;8.822;2023-04-01T11:49:33;11.30;99.90
8420;DHT22;4247;48.550;8.822;2023-04-01T11:52:11;11.20;99.90
8420;DHT22;4247;48.550;8.822;2023-04-01T11:54:56;11.10;99.90
8420;DHT22;4247;48.550;8.822;2023-04-01T11:57:43;11.00;99.90
8420;DHT22;4247;48.550;8.822;2023-04-01T12:03:21;11.10;99.90
8420;DHT22;4247;48.550;8.822;2023-04-01T12:05:57;11.10;99.90
8420;DHT22;4247;48.550;8.822;2023-04-01T12:08:34;11.10;99.90
8420;DHT22;4247;48.550;8.822;2023-04-01T12:11:08;11.20;99.90
8420;DHT22;4247;48.550;8.822;2023-04-01T12:13:45;11.30;99.90
8420;DHT22;4247;48.550;8.822;2023-04-01T12:16:29;11.30;99.90
8420;DHT22;4247;48.550;8.822;2023-04-01T12:19:04;11.30;99.90
8420;DHT22;4247;48.550;8.822;2023-04-01T12:21:37;11.30;99.90
8420;DHT22;4247;48.550;8.822;2023-04-01T12:24:28;11.10;99.90
8420;DHT22;4247;48.550;8.822;2023-04-01T12:27:06;11.20;99.90
8420;DHT22;4247;48.550;8.822;2023-04-01T12:29:49;11.40;99.90
8420;DHT22;4247;48.550;8.822;2023-04-01T12:32:28;11.40;99.90
8420;DHT22;4247;48.550;8.822;2023-04-01T12:35:12;11.30;99.90
8420;DHT22;4247;48.550;8.822;2023-04-01T12:37:50;11.30;99.90
8420;DHT22;4247;48.550;8.822;2023-04-01T12:40:40;11.20;99.90
8420;DHT22;4247;48.550;8.822;2023-04-01T12:43:33;11.20;99.90
8420;DHT22;4247;48.550;8.822;2023-04-01T12:46:09;11.20;99.90
8420;DHT22;4247;48.550;8.822;2023-04-01T12:49:12;11.20;99.90
8420;DHT22;4247;48.550;8.822;2023-04-01T12:51:54;11.20;99.90
8420;DHT22;4247;48.550;8.822;2023-04-01T12:54:56;11.30;99.90
8420;DHT22;4247;48.550;8.822;2023-04-01T13:00:46;11.20;99.90
8420;DHT22;4247;48.550;8.822;2023-04-01T13:03:27;11.30;99.90
8420;DHT22;4247;48.550;8.822;2023-04-01T13:06:22;11.20;99.90
8420;DHT22;4247;48.550;8.822;2023-04-01T13:08:57;11.30;99.90
8420;DHT22;4247;48.550;8.822;2023-04-01T13:11:34;11.30;99.90
8420;DHT22;4247;48.550;8.822;2023-04-01T13:14:18;11.40;99.90
8420;DHT22;4247;48.550;8.822;2023-04-01T13:16:52;11.30;99.90
8420;DHT22;4247;48.550;8.822;2023-04-01T13:19:24;11.40;99.90
8420;DHT22;4247;48.550;8.822;2023-04-01T13:21:58;11.40;99.90
8420;DHT22;4247;48.550;8.822;2023-04-01T13:24:38;11.40;99.90
8420;DHT22;4247;48.550;8.822;2023-04-01T13:27:09;11.40;99.90
8420;DHT22;4247;48.550;8.822;2023-04-01T13:29:41;11.40;99.90
8420;DHT22;4247;48.550;8.822;2023-04-01T13:32:24;11.50;99.90
8420;DHT22;4247;48.550;8.822;2023-04-01T13:35:03;11.40;99.90
8420;DHT22;4247;48.550;8.822;2023-04-01T13:37:46;11.20;99.90
8420;DHT22;4247;48.550;8.822;2023-04-01T13:40:26;11.40;99.90
8420;DHT22;4247;48.550;8.822;2023-04-01T13:42:57;11.30;99.90
8420;DHT22;4247;48.550;8.822;2023-04-01T13:45:32;11.40;99.90
8420;DHT22;4247;48.550;8.822;2023-04-01T13:48:27;11.50;99.90
8420;DHT22;4247;48.550;8.822;2023-04-01T13:54:05;11.50;99.90
8420;DHT22;4247;48.550;8.822;2023-04-01T13:56:42;11.40;99.90
8420;DHT22;4247;48.550;8.822;2023-04-01T13:59:36;11.40;99.90
8420;DHT22;4247;48.550;8.822;2023-04-01T14:02:28;11.40;99.90
8420;DHT22;4247;48.550;8.822;2023-04-01T14:05:12;11.40;99.90
8420;DHT22;4247;48.550;8.822;2023-04-01T14:07:51;11.50;99.90
8420;DHT22;4247;48.550;8.822;2023-04-01T14:10:25;11.40;99.90
8420;DHT22;4247;48.550;8.822;2023-04-01T14:13:01;11.30;99.90
8420;DHT22;4247;48.550;8.822;2023-04-01T14:15:41;11.30;99.90
8420;DHT22;4247;48.550;8.822;2023-04-01T14:21:17;11.40;99.90
8420;DHT22;4247;48.550;8.822;2023-04-01T14:24:03;11.40;99.90
8420;DHT22;4247;48.550;8.822;2023-04-01T14:26:57;11.40;99.90
8420;DHT22;4247;48.550;8.822;2023-04-01T14:29:34;11.40;99.90
8420;DHT22;4247;48.550;8.822;2023-04-01T14:32:07;11.40;99.90
8420;DHT22;4247;48.550;8.822;2023-04-01T14:35:13;11.30;99.90
8420;DHT22;4247;48.550;8.822;2023-04-01T14:40:49;11.20;99.90
8420;DHT22;4247;48.550;8.822;2023-04-01T14:46:24;11.30;99.90
8420;DHT22;4247;48.550;8.822;2023-04-01T14:48:59;11.30;99.90
8420;DHT22;4247;48.550;8.822;2023-04-01T14:51:30;11.30;99.90
8420;DHT22;4247;48.550;8.822;2023-04-01T14:54:02;11.30;99.90
8420;DHT22;4247;48.550;8.822;2023-04-01T14:56:38;11.20;99.90
8420;DHT22;4247;48.550;8.822;2023-04-01T14:59:10;11.20;99.90
8420;DHT22;4247;48.550;8.822;2023-04-01T15:01:46;11.10;99.90
8420;DHT22;4247;48.550;8.822;2023-04-01T15:07:19;11.20;99.90
8420;DHT22;4247;48.550;8.822;2023-04-01T15:09:53;11.30;99.90
8420;DHT22;4247;48.550;8.822;2023-04-01T15:12:26;11.20;99.90
8420;DHT22;4247;48.550;8.822;2023-04-01T15:15:20;11.10;99.90
8420;DHT22;4247;48.550;8.822;2023-04-01T15:17:58;11.20;99.90
8420;DHT22;4247;48.550;8.822;2023-04-01T15:20:56;11.30;99.90
8420;DHT22;4247;48.550;8.822;2023-04-01T15:23:36;11.30;99.90
8420;DHT22;4247;48.550;8.822;2023-04-01T15:26:33;11.20;99.90
8420;DHT22;4247;48.550;8.822;2023-04-01T15:29:15;11.10;99.90
8420;DHT22;4247;48.550;8.822;2023-04-01T15:31:49;11.10;99.90
8420;DHT22;4247;48.550;8.822;2023-04-01T15:34:26;11.10;99.90
8420;DHT22;4247;48.550;8.822;2023-04-01T15:36:59;11.10;99.90
8420;DHT22;4247;48.550;8.822;2023-04-01T15:39:37;11.00;99.90
8420;DHT22;4247;48.550;8.822;2023-04-01T15:42:33;11.10;99.90
8420;DHT22;4247;48.550;8.822;2023-04-01T15:45:13;11.10;99.90
8420;DHT22;4247;48.550;8.822;2023-04-01T15:47:45;11.10;99.90
8420;DHT22;4247;48.550;8.822;2023-04-01T15:50:35;11.10;99.90
8420;DHT22;4247;48.550;8.822;2023-04-01T15:53:18;11.20;99.90
8420;DHT22;4247;48.550;8.822;2023-04-01T15:55:49;11.10;99.90
8420;DHT22;4247;48.550;8.822;2023-04-01T15:58:29;11.10;99.90
8420;DHT22;4247;48.550;8.822;2023-04-01T16:01:07;10.90;99.90
8420;DHT22;4247;48.550;8.822;2023-04-01T16:03:44;10.90;99.90
8420;DHT22;4247;48.550;8.822;2023-04-01T16:06:34;10.90;99.90
8420;DHT22;4247;48.550;8.822;2023-04-01T16:09:30;10.80;99.90
8420;DHT22;4247;48.550;8.822;2023-04-01T16:12:04;10.90;99.90
8420;DHT22;4247;48.550;8.822;2023-04-01T16:14:39;10.80;99.90
8420;DHT22;4247;48.550;8.822;2023-04-01T16:17:36;10.80;99.90
8420;DHT22;4247;48.550;8.822;2023-04-01T16:20:18;10.80;99.90
8420;DHT22;4247;48.550;8.822;2023-04-01T16:22:50;10.80;99.90
8420;DHT22;4247;48.550;8.822;2023-04-01T16:25:24;10.70;99.90
8420;DHT22;4247;48.550;8.822;2023-04-01T16:28:02;10.70;99.90
8420;DHT22;4247;48.550;8.822;2023-04-01T16:30:35;10.70;99.90
8420;DHT22;4247;48.550;8.822;2023-04-01T16:33:05;10.70;99.90
8420;DHT22;4247;48.550;8.822;2023-04-01T16:35:42;10.70;99.90
8420;DHT22;4247;48.550;8.822;2023-04-01T16:38:16;10.80;99.90
8420;DHT22;4247;48.550;8.822;2023-04-01T16:40:52;10.80;99.90
8420;DHT22;4247;48.550;8.822;2023-04-01T16:43:25;10.80;99.90
8420;DHT22;4247;48.550;8.822;2023-04-01T16:49:03;10.70;99.90
8420;DHT22;4247;48.550;8.822;2023-04-01T16:51:40;10.70;99.90
8420;DHT22;4247;48.550;8.822;2023-04-01T16:54:14;10.70;99.90
8420;DHT22;4247;48.550;8.822;2023-04-01T16:56:46;10.60;99.90
8420;DHT22;4247;48.550;8.822;2023-04-01T16:59:18;10.60;99.90
8420;DHT22;4247;48.550;8.822;2023-04-01T17:01:52;10.60;99.90
8420;DHT22;4247;48.550;8.822;2023-04-01T17:04:26;10.50;99.90
8420;DHT22;4247;48.550;8.822;2023-04-01T17:07:04;10.50;99.90
8420;DHT22;4247;48.550;8.822;2023-04-01T17:12:27;10.30;99.90
8420;DHT22;4247;48.550;8.822;2023-04-01T17:15:02;10.30;99.90
8420;DHT22;4247;48.550;8.822;2023-04-01T17:17:42;10.20;99.90
8420;DHT22;4247;48.550;8.822;2023-04-01T17:20:33;10.20;99.90
8420;DHT22;4247;48.550;8.822;2023-04-01T17:23:12;10.20;99.90
8420;DHT22;4247;48.550;8.822;2023-04-01T17:26:01;10.20;99.90
8420;DHT22;4247;48.550;8.822;2023-04-01T17:28:39;10.20;99.90
8420;DHT22;4247;48.550;8.822;2023-04-01T17:31:18;10.10;99.90
8420;DHT22;4247;48.550;8.822;2023-04-01T17:37:02;10.00;99.90
8420;DHT22;4247;48.550;8.822;2023-04-01T17:39:49;10.00;99.90
8420;DHT22;4247;48.550;8.822;2023-04-01T17:42:21;10.00;99.90
8420;DHT22;4247;48.550;8.822;2023-04-01T17:44:55;9.90;99.90
8420;DHT22;4247;48.550;8.822;2023-04-01T17:47:35;10.00;99.90
8420;DHT22;4247;48.550;8.822;2023-04-01T17:50:14;10.00;99.90
8420;DHT22;4247;48.550;8.822;2023-04-01T17:52:51;10.00;99.90
8420;DHT22;4247;48.550;8.822;2023-04-01T17:55:37;9.90;99.90
8420;DHT22;4247;48.550;8.822;2023-04-01T17:58:10;9.90;99.90
8420;DHT22;4247;48.550;8.822;2023-04-01T18:00:50;9.80;99.90
8420;DHT22;4247;48.550;8.822;2023-04-01T18:03:29;9.80;99.90
8420;DHT22;4247;48.550;8.822;2023-04-01T18:06:04;9.80;99.90
8420;DHT22;4247;48.550;8.822;2023-04-01T18:08:43;9.80;99.90
8420;DHT22;4247;48.550;8.822;2023-04-01T18:11:23;9.70;99.90
8420;DHT22;4247;48.550;8.822;2023-04-01T18:14:21;9.60;99.90
8420;DHT22;4247;48.550;8.822;2023-04-01T18:17:02;9.50;99.90
8420;DHT22;4247;48.550;8.822;2023-04-01T18:19:39;9.40;99.90
8420;DHT22;4247;48.550;8.822;2023-04-01T18:22:17;9.20;99.90
8420;DHT22;4247;48.550;8.822;2023-04-01T18:24:49;9.10;99.90
8420;DHT22;4247;48.550;8.822;2023-04-01T18:27:24;9.00;99.90
8420;DHT22;4247;48.550;8.822;2023-04-01T18:30:00;8.90;99.90
8420;DHT22;4247;48.550;8.822;2023-04-01T18:32:34;8.80;99.90
8420;DHT22;4247;48.550;8.822;2023-04-01T18:35:14;8.70;99.90